Time;durP1;ratioP1;P1;durP2;ratioP2;P2;SDS_P1;SDS_P2;PMS_P1;PMS_P2;Temp;Humidity;BMP_temperature;BMP_pressure;BME280_temperature;BME280_humidity;BME280_pressure;Samples;Min_cycle;Max_cycle;Signal;HPM_P1;HPM_P2
2021/07/16 00:01:19;;;;;;;4.13;3.42;;;;;;;;;;5074797;28;20523;-48
2021/07/16 00:03:45;;;;;;;4.25;3.58;;;;;;;;;;5074891;28;20056;-49
2021/07/16 00:06:11;;;;;;;4.20;3.05;;;;;;;;;;5075072;28;20086;-48
2021/07/16 00:08:37;;;;;;;4.28;2.95;;;;;;;;;;5074356;28;20100;-48
2021/07/16 00:11:03;;;;;;;4.10;2.92;;;;;;;;;;5080990;28;20032;-47
2021/07/16 00:13:29;;;;;;;4.20;2.97;;;;;;;;;;5070385;28;20029;-48
2021/07/16 00:15:55;;;;;;;6.75;3.05;;;;;;;;;;5074432;28;20028;-49
2021/07/16 00:18:21;;;;;;;3.20;2.80;;;;;;;;;;5074278;28;20538;-53
2021/07/16 00:20:48;;;;;;;5.88;3.70;;;;;;;;;;5074607;28;20039;-52
2021/07/16 00:23:14;;;;;;;4.25;3.30;;;;;;;;;;5073223;28;20104;-54
2021/07/16 00:25:40;;;;;;;4.78;3.40;;;;;;;;;;5074557;28;20428;-51
2021/07/16 00:28:07;;;;;;;3.80;3.20;;;;;;;;;;5073130;28;20543;-48
2021/07/16 00:30:34;;;;;;;5.07;3.70;;;;;;;;;;5074463;28;20028;-51
2021/07/16 00:33:00;;;;;;;3.03;2.80;;;;;;;;;;5074186;28;20457;-48
2021/07/16 00:35:26;;;;;;;6.10;3.50;;;;;;;;;;5072935;28;20024;-48
2021/07/16 00:37:52;;;;;;;3.95;3.55;;;;;;;;;;5070365;28;20095;-48
2021/07/16 00:40:18;;;;;;;3.40;3.05;;;;;;;;;;5067703;28;20028;-49
2021/07/16 00:42:44;;;;;;;5.95;3.50;;;;;;;;;;5074062;28;20113;-47
2021/07/16 00:45:11;;;;;;;6.00;3.63;;;;;;;;;;5074254;28;20502;-48
2021/07/16 00:47:38;;;;;;;4.18;3.38;;;;;;;;;;5073734;28;20109;-48
2021/07/16 00:50:06;;;;;;;11.00;3.63;;;;;;;;;;5074169;28;20108;-48
2021/07/16 00:52:32;;;;;;;8.48;3.42;;;;;;;;;;5073887;28;20078;-48
2021/07/16 00:54:58;;;;;;;7.28;3.40;;;;;;;;;;5074083;28;20021;-53
2021/07/16 00:57:24;;;;;;;7.05;3.70;;;;;;;;;;5073202;28;20120;-48
2021/07/16 00:59:51;;;;;;;6.05;3.50;;;;;;;;;;5073541;28;20532;-48
2021/07/16 01:02:17;;;;;;;4.10;3.40;;;;;;;;;;5073661;28;20154;-48
2021/07/16 01:04:43;;;;;;;3.95;3.65;;;;;;;;;;5074114;28;20023;-51
2021/07/16 01:07:09;;;;;;;5.07;3.40;;;;;;;;;;5074086;28;20036;-53
2021/07/16 01:09:35;;;;;;;4.50;3.45;;;;;;;;;;5073579;28;20076;-48
2021/07/16 01:12:02;;;;;;;4.95;3.20;;;;;;;;;;5079710;28;20432;-48
2021/07/16 01:14:28;;;;;;;6.07;3.33;;;;;;;;;;5073358;28;20107;-48
2021/07/16 01:16:54;;;;;;;8.27;3.75;;;;;;;;;;5072854;28;20457;-48
2021/07/16 01:19:32;;;;;;;9.68;3.35;;;;;;;;;;5073251;28;20426;-49
2021/07/16 01:21:59;;;;;;;5.00;3.60;;;;;;;;;;5072146;28;20016;-50
2021/07/16 01:24:25;;;;;;;9.15;4.15;;;;;;;;;;5073407;28;20024;-49
2021/07/16 01:26:51;;;;;;;7.70;4.50;;;;;;;;;;5072067;28;20464;-48
2021/07/16 01:29:18;;;;;;;6.93;4.03;;;;;;;;;;5073106;28;20111;-48
2021/07/16 01:31:44;;;;;;;9.98;3.97;;;;;;;;;;5072805;28;20362;-48
2021/07/16 01:34:10;;;;;;;8.38;4.88;;;;;;;;;;5073198;28;20043;-51
2021/07/16 01:36:37;;;;;;;9.50;5.22;;;;;;;;;;5067675;28;20115;-52
2021/07/16 01:39:04;;;;;;;8.52;4.13;;;;;;;;;;5066320;28;20384;-50
2021/07/16 01:41:30;;;;;;;7.35;4.50;;;;;;;;;;5072626;28;20028;-52
2021/07/16 01:43:56;;;;;;;8.23;4.50;;;;;;;;;;5073296;28;20499;-54
2021/07/16 01:46:22;;;;;;;6.40;4.47;;;;;;;;;;5071478;28;20647;-49
2021/07/16 01:48:48;;;;;;;6.43;4.25;;;;;;;;;;5072462;28;20074;-48
2021/07/16 01:51:14;;;;;;;6.78;4.28;;;;;;;;;;5072890;28;20111;-47
2021/07/16 01:53:40;;;;;;;4.97;3.83;;;;;;;;;;5072642;28;20376;-48
2021/07/16 01:56:06;;;;;;;5.50;3.97;;;;;;;;;;5072791;28;20032;-48
2021/07/16 01:58:32;;;;;;;10.63;3.78;;;;;;;;;;5071167;28;20021;-48
2021/07/16 02:00:59;;;;;;;9.80;4.10;;;;;;;;;;5071996;28;20052;-48
2021/07/16 02:03:25;;;;;;;7.32;4.18;;;;;;;;;;5072781;28;20031;-48
2021/07/16 02:05:51;;;;;;;10.57;3.72;;;;;;;;;;5072618;28;20399;-50
2021/07/16 02:08:18;;;;;;;4.53;3.65;;;;;;;;;;5071715;28;20143;-48
2021/07/16 02:10:45;;;;;;;5.07;3.67;;;;;;;;;;5075281;28;20414;-54
2021/07/16 02:13:11;;;;;;;7.15;4.20;;;;;;;;;;5074798;28;20032;-51
2021/07/16 02:15:38;;;;;;;11.00;3.78;;;;;;;;;;5072387;28;20036;-49
2021/07/16 02:18:05;;;;;;;4.10;3.55;;;;;;;;;;5072080;28;20012;-53
2021/07/16 02:20:32;;;;;;;4.13;3.72;;;;;;;;;;5069979;28;20026;-52
2021/07/16 02:22:59;;;;;;;5.13;3.65;;;;;;;;;;5069894;28;20029;-51
2021/07/16 02:25:26;;;;;;;7.30;3.78;;;;;;;;;;5072383;28;20031;-49
2021/07/16 02:27:53;;;;;;;8.60;3.60;;;;;;;;;;5071592;28;20506;-48
2021/07/16 02:30:20;;;;;;;4.53;4.00;;;;;;;;;;5072244;28;20104;-48
2021/07/16 02:32:46;;;;;;;7.38;3.65;;;;;;;;;;5072133;28;20021;-48
2021/07/16 02:35:13;;;;;;;10.02;4.00;;;;;;;;;;5072100;28;20024;-49
2021/07/16 02:37:40;;;;;;;5.45;3.85;;;;;;;;;;5066565;28;20032;-48
2021/07/16 02:40:07;;;;;;;5.40;3.55;;;;;;;;;;5065380;28;20025;-48
2021/07/16 02:42:33;;;;;;;6.35;3.80;;;;;;;;;;5070885;28;20029;-50
2021/07/16 02:44:59;;;;;;;4.97;3.38;;;;;;;;;;5072049;28;20033;-48
2021/07/16 02:47:25;;;;;;;5.18;3.33;;;;;;;;;;5072194;28;20059;-48
2021/07/16 02:49:51;;;;;;;9.13;3.53;;;;;;;;;;5071678;28;20757;-51
2021/07/16 02:52:17;;;;;;;8.52;3.83;;;;;;;;;;5071811;28;20044;-49
2021/07/16 02:54:43;;;;;;;8.82;3.97;;;;;;;;;;5072090;28;20036;-49
2021/07/16 02:57:09;;;;;;;9.93;4.38;;;;;;;;;;5071481;28;20028;-53
2021/07/16 02:59:36;;;;;;;6.05;4.10;;;;;;;;;;5071855;28;20029;-48
2021/07/16 03:02:05;;;;;;;9.20;4.65;;;;;;;;;;5071972;28;20107;-49
2021/07/16 03:04:31;;;;;;;6.90;4.00;;;;;;;;;;5071823;28;20491;-48
2021/07/16 03:06:57;;;;;;;5.75;3.70;;;;;;;;;;5071771;28;20111;-47
2021/07/16 03:09:23;;;;;;;4.25;3.85;;;;;;;;;;5071544;28;20045;-48
2021/07/16 03:11:49;;;;;;;6.40;4.53;;;;;;;;;;5078546;28;20032;-49
2021/07/16 03:14:14;;;;;;;6.63;3.60;;;;;;;;;;5070863;28;20373;-47
2021/07/16 03:16:41;;;;;;;7.63;3.75;;;;;;;;;;5071900;28;20093;-48
2021/07/16 03:19:07;;;;;;;11.00;4.25;;;;;;;;;;5071253;28;20100;-48
2021/07/16 03:21:33;;;;;;;6.32;3.78;;;;;;;;;;5071011;28;20476;-49
2021/07/16 03:23:59;;;;;;;7.50;4.18;;;;;;;;;;5071757;28;20036;-51
2021/07/16 03:26:25;;;;;;;5.90;3.92;;;;;;;;;;5070953;28;20116;-50
2021/07/16 03:28:51;;;;;;;6.40;4.05;;;;;;;;;;5071373;28;20024;-52
2021/07/16 03:31:17;;;;;;;4.18;3.67;;;;;;;;;;5071295;28;20101;-50
2021/07/16 03:33:43;;;;;;;12.13;4.38;;;;;;;;;;5071607;28;20032;-49
2021/07/16 03:36:09;;;;;;;5.35;4.18;;;;;;;;;;5065909;28;20037;-51
2021/07/16 03:38:37;;;;;;;5.93;4.18;;;;;;;;;;5068758;28;20532;-48
2021/07/16 03:41:07;;;;;;;7.28;4.45;;;;;;;;;;5067624;28;20100;-47
2021/07/16 03:43:32;;;;;;;6.05;4.75;;;;;;;;;;5071909;28;20032;-47
2021/07/16 03:45:58;;;;;;;7.50;4.97;;;;;;;;;;5071169;28;20035;-49
2021/07/16 03:48:24;;;;;;;9.02;5.60;;;;;;;;;;5071121;28;20103;-48
2021/07/16 03:50:51;;;;;;;8.45;4.97;;;;;;;;;;5071297;28;20028;-50
2021/07/16 03:53:16;;;;;;;9.35;4.68;;;;;;;;;;5070711;28;20021;-48
2021/07/16 03:55:42;;;;;;;6.65;4.65;;;;;;;;;;5074924;28;20066;-48
2021/07/16 03:58:09;;;;;;;10.45;4.45;;;;;;;;;;5074630;28;20059;-48
2021/07/16 04:00:35;;;;;;;11.55;3.85;;;;;;;;;;5074772;28;20032;-53
2021/07/16 04:03:02;;;;;;;7.05;3.53;;;;;;;;;;5074917;28;20025;-52
2021/07/16 04:05:30;;;;;;;8.43;4.20;;;;;;;;;;5074930;28;20364;-51
2021/07/16 04:08:05;;;;;;;4.22;3.78;;;;;;;;;;5072952;28;20050;-50
2021/07/16 04:10:33;;;;;;;14.68;4.32;;;;;;;;;;5076389;28;20056;-52
2021/07/16 04:13:00;;;;;;;8.98;3.65;;;;;;;;;;5080335;28;20099;-50
2021/07/16 04:15:26;;;;;;;4.20;3.80;;;;;;;;;;5074223;28;20063;-50
2021/07/16 04:17:53;;;;;;;9.48;4.38;;;;;;;;;;5074402;28;20122;-50
2021/07/16 04:20:19;;;;;;;4.93;4.05;;;;;;;;;;5074854;28;20047;-52
2021/07/16 04:22:45;;;;;;;11.80;4.22;;;;;;;;;;5073436;28;20039;-48
2021/07/16 04:25:14;;;;;;;5.43;4.18;;;;;;;;;;5074615;28;20539;-49
2021/07/16 04:27:40;;;;;;;7.25;5.32;;;;;;;;;;5074252;28;20036;-48
2021/07/16 04:30:06;;;;;;;5.63;4.30;;;;;;;;;;5076490;28;20047;-48
2021/07/16 04:32:32;;;;;;;4.70;4.20;;;;;;;;;;5074108;28;20029;-48
2021/07/16 04:34:59;;;;;;;6.18;5.25;;;;;;;;;;5074457;28;20103;-48
2021/07/16 04:37:25;;;;;;;7.45;5.18;;;;;;;;;;5069287;28;20031;-48
2021/07/16 04:39:51;;;;;;;6.20;5.15;;;;;;;;;;5067344;28;20029;-54
2021/07/16 04:42:17;;;;;;;8.68;5.53;;;;;;;;;;5074364;28;20525;-52
2021/07/16 04:44:43;;;;;;;8.43;5.53;;;;;;;;;;5074128;28;20070;-48
2021/07/16 04:47:09;;;;;;;6.90;5.85;;;;;;;;;;5073942;28;20032;-52
2021/07/16 04:49:35;;;;;;;10.27;5.35;;;;;;;;;;5073776;28;20070;-49
2021/07/16 04:52:01;;;;;;;8.00;5.03;;;;;;;;;;5073962;28;20032;-50
2021/07/16 04:54:27;;;;;;;6.47;5.25;;;;;;;;;;5074050;28;20032;-48
2021/07/16 04:56:53;;;;;;;7.43;5.35;;;;;;;;;;5074694;28;20074;-48
2021/07/16 04:59:19;;;;;;;8.07;5.50;;;;;;;;;;5071345;28;20027;-48
2021/07/16 05:01:45;;;;;;;8.52;5.90;;;;;;;;;;5073596;28;20031;-47
2021/07/16 05:04:11;;;;;;;12.23;5.43;;;;;;;;;;5073720;28;20024;-48
2021/07/16 05:06:37;;;;;;;10.07;5.82;;;;;;;;;;5073007;28;20020;-48
2021/07/16 05:09:04;;;;;;;6.50;5.20;;;;;;;;;;5073207;28;20040;-48
2021/07/16 05:11:30;;;;;;;7.43;5.43;;;;;;;;;;5081535;28;20028;-48
2021/07/16 05:13:56;;;;;;;6.65;5.30;;;;;;;;;;5071551;28;20047;-49
2021/07/16 05:16:23;;;;;;;6.05;5.22;;;;;;;;;;5073394;28;20029;-53
2021/07/16 05:18:49;;;;;;;7.93;5.88;;;;;;;;;;5073384;28;20020;-50
2021/07/16 05:21:15;;;;;;;11.20;7.60;;;;;;;;;;5073603;28;20078;-51
2021/07/16 05:23:42;;;;;;;13.45;5.93;;;;;;;;;;5071732;28;20054;-49
2021/07/16 05:26:08;;;;;;;6.65;5.95;;;;;;;;;;5072761;28;20039;-54
2021/07/16 05:28:34;;;;;;;9.43;5.80;;;;;;;;;;5072717;28;20035;-50
2021/07/16 05:31:00;;;;;;;6.93;6.22;;;;;;;;;;5073241;28;20032;-48
2021/07/16 05:33:26;;;;;;;7.78;6.70;;;;;;;;;;5073125;28;20032;-49
2021/07/16 05:35:55;;;;;;;16.13;6.68;;;;;;;;;;5067876;28;20024;-53
2021/07/16 05:38:22;;;;;;;15.10;7.72;;;;;;;;;;5072009;28;20058;-48
2021/07/16 05:40:48;;;;;;;10.75;6.50;;;;;;;;;;5067068;28;20013;-49
2021/07/16 05:43:14;;;;;;;9.52;7.70;;;;;;;;;;5073294;28;20048;-48
2021/07/16 05:45:43;;;;;;;8.45;6.32;;;;;;;;;;5071883;28;20044;-48
2021/07/16 05:48:11;;;;;;;12.52;7.55;;;;;;;;;;5070258;28;20115;-48
2021/07/16 05:50:38;;;;;;;9.88;6.90;;;;;;;;;;5072747;28;20029;-48
2021/07/16 05:53:04;;;;;;;11.55;7.22;;;;;;;;;;5072962;28;20028;-50
2021/07/16 05:55:35;;;;;;;8.35;6.95;;;;;;;;;;5072503;28;20368;-51
2021/07/16 05:58:01;;;;;;;8.75;7.30;;;;;;;;;;5072455;28;20427;-48
2021/07/16 06:00:28;;;;;;;11.07;7.00;;;;;;;;;;5071328;28;20040;-52
2021/07/16 06:02:54;;;;;;;11.52;7.15;;;;;;;;;;5072034;28;20829;-51
2021/07/16 06:05:20;;;;;;;7.60;6.70;;;;;;;;;;5072683;28;20381;-52
2021/07/16 06:07:49;;;;;;;8.10;6.85;;;;;;;;;;5071987;28;20089;-48
2021/07/16 06:10:15;;;;;;;10.55;7.32;;;;;;;;;;5072406;28;20104;-50
2021/07/16 06:12:42;;;;;;;9.77;7.45;;;;;;;;;;5078420;28;20025;-47
2021/07/16 06:15:09;;;;;;;10.30;7.13;;;;;;;;;;5072221;28;20056;-47
2021/07/16 06:17:35;;;;;;;8.55;6.43;;;;;;;;;;5072112;28;20017;-47
2021/07/16 06:20:01;;;;;;;6.90;6.20;;;;;;;;;;5072381;28;20027;-50
2021/07/16 06:22:28;;;;;;;10.88;6.90;;;;;;;;;;5070840;28;20111;-51
2021/07/16 06:24:57;;;;;;;12.43;7.78;;;;;;;;;;5070504;28;20024;-50
2021/07/16 06:27:23;;;;;;;8.98;7.25;;;;;;;;;;5071852;28;20025;-50
2021/07/16 06:29:49;;;;;;;10.82;6.57;;;;;;;;;;5071776;28;20522;-50
2021/07/16 06:32:15;;;;;;;10.00;6.30;;;;;;;;;;5072469;28;20025;-50
2021/07/16 06:34:41;;;;;;;11.70;6.72;;;;;;;;;;5072243;28;20396;-48
2021/07/16 06:37:07;;;;;;;8.93;5.68;;;;;;;;;;5066283;28;20032;-48
2021/07/16 06:39:33;;;;;;;10.70;6.00;;;;;;;;;;5065056;28;20115;-50
2021/07/16 06:41:59;;;;;;;10.88;5.90;;;;;;;;;;5069945;28;20512;-50
2021/07/16 06:44:25;;;;;;;8.20;5.65;;;;;;;;;;5071964;28;20016;-48
2021/07/16 06:46:51;;;;;;;8.55;6.55;;;;;;;;;;5072051;28;20032;-54
2021/07/16 06:49:17;;;;;;;8.48;5.35;;;;;;;;;;5071523;28;20050;-50
2021/07/16 06:51:42;;;;;;;6.82;5.43;;;;;;;;;;5074263;28;20052;-49
2021/07/16 06:54:08;;;;;;;10.23;5.65;;;;;;;;;;5071958;28;20499;-48
2021/07/16 06:56:36;;;;;;;10.82;5.80;;;;;;;;;;5071953;28;20052;-50
2021/07/16 06:59:02;;;;;;;7.82;5.38;;;;;;;;;;5071225;28;20020;-47
2021/07/16 07:01:28;;;;;;;12.13;5.72;;;;;;;;;;5071978;28;20108;-48
2021/07/16 07:03:54;;;;;;;11.77;6.45;;;;;;;;;;5071111;28;20032;-48
2021/07/16 07:06:20;;;;;;;7.50;5.28;;;;;;;;;;5071840;28;20059;-48
2021/07/16 07:08:46;;;;;;;10.32;5.38;;;;;;;;;;5071416;28;20045;-47
2021/07/16 07:11:12;;;;;;;6.00;5.03;;;;;;;;;;5079102;28;20102;-48
2021/07/16 07:13:38;;;;;;;5.40;4.90;;;;;;;;;;5071352;28;20024;-47
2021/07/16 07:16:04;;;;;;;8.20;5.38;;;;;;;;;;5071927;28;20044;-47
2021/07/16 07:18:30;;;;;;;9.43;4.75;;;;;;;;;;5071406;28;20028;-48
2021/07/16 07:20:56;;;;;;;6.78;4.60;;;;;;;;;;5071538;28;20028;-47
2021/07/16 07:23:22;;;;;;;6.40;4.93;;;;;;;;;;5070114;28;20468;-47
2021/07/16 07:25:48;;;;;;;6.78;5.03;;;;;;;;;;5071852;28;20025;-47
2021/07/16 07:28:16;;;;;;;4.97;4.40;;;;;;;;;;5069065;28;20032;-48
2021/07/16 07:30:42;;;;;;;6.18;4.78;;;;;;;;;;5075514;28;20024;-47
2021/07/16 07:33:08;;;;;;;7.03;4.43;;;;;;;;;;5075351;28;20114;-47
2021/07/16 07:35:34;;;;;;;8.73;5.07;;;;;;;;;;5072368;28;20074;-47
2021/07/16 07:38:04;;;;;;;7.18;4.78;;;;;;;;;;5072723;28;20066;-47
2021/07/16 07:40:31;;;;;;;8.02;5.05;;;;;;;;;;5069084;28;20033;-48
2021/07/16 07:42:58;;;;;;;8.63;4.97;;;;;;;;;;5075316;28;20091;-50
2021/07/16 07:45:25;;;;;;;4.72;4.22;;;;;;;;;;5075087;28;20472;-52
2021/07/16 07:47:51;;;;;;;5.40;4.38;;;;;;;;;;5074646;28;20028;-49
2021/07/16 07:50:17;;;;;;;8.68;4.90;;;;;;;;;;5075069;28;20116;-47
2021/07/16 07:52:44;;;;;;;6.80;4.97;;;;;;;;;;5075313;28;20035;-51
2021/07/16 07:55:10;;;;;;;4.70;4.00;;;;;;;;;;5064918;28;20492;-48
2021/07/16 07:57:36;;;;;;;7.47;4.75;;;;;;;;;;5073531;28;20151;-48
2021/07/16 08:00:05;;;;;;;8.13;4.90;;;;;;;;;;5073568;28;20036;-48
2021/07/16 08:02:31;;;;;;;8.68;4.82;;;;;;;;;;5074781;28;20115;-48
2021/07/16 08:04:57;;;;;;;6.15;4.53;;;;;;;;;;5074985;28;20111;-47
2021/07/16 08:07:23;;;;;;;5.40;4.63;;;;;;;;;;5074789;28;20079;-47
2021/07/16 08:09:49;;;;;;;7.78;4.50;;;;;;;;;;5074432;28;20063;-47
2021/07/16 08:12:15;;;;;;;5.68;4.80;;;;;;;;;;5082486;28;20035;-47
2021/07/16 08:14:41;;;;;;;6.55;4.80;;;;;;;;;;5074401;28;20029;-47
2021/07/16 08:17:07;;;;;;;9.75;4.57;;;;;;;;;;5074462;28;20028;-51
2021/07/16 08:19:34;;;;;;;4.80;4.13;;;;;;;;;;5073062;28;20127;-53
2021/07/16 08:22:01;;;;;;;7.05;4.72;;;;;;;;;;5073057;28;20039;-52
2021/07/16 08:24:27;;;;;;;7.90;4.60;;;;;;;;;;5074593;28;20107;-48
2021/07/16 08:26:53;;;;;;;6.88;4.93;;;;;;;;;;5074597;28;20112;-52
2021/07/16 08:29:19;;;;;;;7.78;5.22;;;;;;;;;;5073892;28;20052;-47
2021/07/16 08:31:45;;;;;;;5.18;4.15;;;;;;;;;;5074162;28;20124;-47
2021/07/16 08:34:11;;;;;;;6.22;4.82;;;;;;;;;;5074367;28;20473;-48
2021/07/16 08:36:38;;;;;;;5.28;4.30;;;;;;;;;;5068961;28;20017;-51
2021/07/16 08:39:05;;;;;;;6.03;4.45;;;;;;;;;;5067548;28;20083;-48
2021/07/16 08:41:31;;;;;;;7.68;4.63;;;;;;;;;;5074091;28;20375;-48
2021/07/16 08:43:57;;;;;;;7.25;4.40;;;;;;;;;;5074073;28;20099;-49
2021/07/16 08:46:23;;;;;;;6.13;4.68;;;;;;;;;;5073937;28;20043;-47
2021/07/16 08:48:49;;;;;;;6.47;4.75;;;;;;;;;;5073752;28;20108;-47
2021/07/16 08:51:21;;;;;;;7.05;4.47;;;;;;;;;;5074287;28;20039;-51
2021/07/16 08:53:50;;;;;;;10.75;4.57;;;;;;;;;;5074090;28;20444;-47
2021/07/16 08:56:16;;;;;;;8.73;5.30;;;;;;;;;;5074093;28;20028;-47
2021/07/16 08:58:43;;;;;;;5.75;4.20;;;;;;;;;;5071761;28;20021;-52
2021/07/16 09:01:09;;;;;;;8.23;4.78;;;;;;;;;;5074210;28;20456;-51
2021/07/16 09:03:37;;;;;;;6.72;4.65;;;;;;;;;;5073827;28;20025;-51
2021/07/16 09:06:05;;;;;;;9.25;3.97;;;;;;;;;;5073897;28;20028;-48
2021/07/16 09:08:30;;;;;;;6.15;4.85;;;;;;;;;;5073265;28;20052;-52
2021/07/16 09:11:00;;;;;;;7.65;4.72;;;;;;;;;;5078909;28;20511;-47
2021/07/16 09:13:27;;;;;;;8.40;4.95;;;;;;;;;;5073006;28;20577;-47
2021/07/16 09:15:56;;;;;;;9.38;4.80;;;;;;;;;;5073287;28;20013;-48
2021/07/16 09:18:27;;;;;;;6.35;4.60;;;;;;;;;;5073120;28;20361;-49
2021/07/16 09:21:02;;;;;;;8.68;4.60;;;;;;;;;;5073461;28;20040;-47
2021/07/16 09:23:35;;;;;;;9.82;4.55;;;;;;;;;;5072274;28;20099;-47
2021/07/16 09:26:09;;;;;;;8.52;4.53;;;;;;;;;;5073250;28;20032;-48
2021/07/16 09:28:35;;;;;;;10.07;5.35;;;;;;;;;;5071146;28;20040;-48
2021/07/16 09:31:12;;;;;;;11.48;5.40;;;;;;;;;;5073216;28;20039;-47
2021/07/16 09:33:44;;;;;;;6.93;4.88;;;;;;;;;;5073292;28;20071;-48
2021/07/16 09:36:10;;;;;;;6.80;5.28;;;;;;;;;;5068098;28;20024;-47
2021/07/16 09:38:37;;;;;;;6.28;5.07;;;;;;;;;;5070066;28;20024;-48
2021/07/16 09:41:06;;;;;;;9.77;5.97;;;;;;;;;;5069436;28;20032;-48
2021/07/16 09:43:32;;;;;;;7.55;4.90;;;;;;;;;;5073081;28;20025;-48
2021/07/16 09:45:59;;;;;;;8.55;5.35;;;;;;;;;;5072509;28;20115;-48
2021/07/16 09:48:34;;;;;;;12.20;5.60;;;;;;;;;;5072692;28;20024;-52
2021/07/16 09:51:20;;;;;;;5.75;5.00;;;;;;;;;;5072489;28;20044;-53
2021/07/16 09:53:54;;;;;;;7.43;4.90;;;;;;;;;;5072851;28;20028;-48
2021/07/16 09:56:21;;;;;;;7.47;4.53;;;;;;;;;;5072551;28;20389;-53
2021/07/16 09:58:48;;;;;;;6.13;4.60;;;;;;;;;;5071715;28;20020;-51
2021/07/16 10:01:14;;;;;;;10.10;5.30;;;;;;;;;;5071181;28;20016;-52
2021/07/16 10:03:41;;;;;;;8.02;5.15;;;;;;;;;;5070562;28;20068;-49
2021/07/16 10:06:14;;;;;;;8.07;5.25;;;;;;;;;;5072770;28;20025;-53
2021/07/16 10:08:40;;;;;;;8.75;4.75;;;;;;;;;;5071965;28;20047;-48
2021/07/16 10:11:07;;;;;;;9.88;4.78;;;;;;;;;;5078965;28;20089;-48
2021/07/16 10:13:34;;;;;;;8.50;4.78;;;;;;;;;;5070539;28;20070;-48
2021/07/16 10:16:00;;;;;;;8.35;5.43;;;;;;;;;;5072260;28;20016;-53
2021/07/16 10:18:26;;;;;;;6.05;4.80;;;;;;;;;;5071980;28;20515;-51
2021/07/16 10:20:52;;;;;;;8.63;4.80;;;;;;;;;;5072447;28;20107;-48
2021/07/16 10:23:18;;;;;;;7.10;5.30;;;;;;;;;;5070665;28;20112;-48
2021/07/16 10:25:48;;;;;;;7.65;4.85;;;;;;;;;;5072614;28;20040;-47
2021/07/16 10:28:35;;;;;;;7.10;5.18;;;;;;;;;;5071846;28;20031;-49
2021/07/16 10:31:01;;;;;;;11.85;5.30;;;;;;;;;;5072220;28;20526;-47
2021/07/16 10:33:33;;;;;;;9.20;5.20;;;;;;;;;;5072391;28;20067;-48
2021/07/16 10:35:59;;;;;;;9.60;5.50;;;;;;;;;;5067061;28;20028;-48
2021/07/16 10:38:29;;;;;;;9.10;5.47;;;;;;;;;;5070599;28;20024;-49
2021/07/16 10:40:55;;;;;;;6.28;5.00;;;;;;;;;;5067645;28;20039;-47
2021/07/16 10:43:27;;;;;;;6.15;4.50;;;;;;;;;;5072231;28;20115;-54
2021/07/16 10:45:58;;;;;;;10.68;5.35;;;;;;;;;;5072008;28;20028;-53
2021/07/16 10:48:31;;;;;;;9.30;4.30;;;;;;;;;;5071627;28;20021;-51
2021/07/16 10:50:57;;;;;;;6.85;4.30;;;;;;;;;;5072272;28;20074;-48
2021/07/16 10:53:29;;;;;;;6.72;4.00;;;;;;;;;;5072317;28;20037;-50
2021/07/16 10:55:55;;;;;;;6.72;4.63;;;;;;;;;;5072354;28;20017;-53
2021/07/16 10:58:21;;;;;;;5.85;3.70;;;;;;;;;;5070199;28;20381;-47
2021/07/16 11:00:47;;;;;;;11.45;4.60;;;;;;;;;;5071619;28;20021;-48
2021/07/16 11:03:14;;;;;;;9.20;4.72;;;;;;;;;;5072647;28;20070;-49
2021/07/16 11:05:42;;;;;;;9.73;5.13;;;;;;;;;;5074678;28;20451;-47
2021/07/16 11:08:08;;;;;;;5.80;4.60;;;;;;;;;;5075805;28;20040;-48
2021/07/16 11:10:56;;;;;;;7.30;4.53;;;;;;;;;;5077998;28;20099;-48
2021/07/16 11:13:31;;;;;;;8.95;4.93;;;;;;;;;;5076898;28;20028;-48
2021/07/16 11:15:57;;;;;;;8.90;4.55;;;;;;;;;;5075856;28;20021;-48
2021/07/16 11:18:27;;;;;;;6.85;4.45;;;;;;;;;;5075461;28;20021;-47
2021/07/16 11:20:53;;;;;;;9.30;4.90;;;;;;;;;;5075845;28;20040;-47
2021/07/16 11:23:20;;;;;;;10.93;4.80;;;;;;;;;;5074148;28;20039;-49
2021/07/16 11:25:46;;;;;;;9.95;5.47;;;;;;;;;;5076135;28;20031;-48
2021/07/16 11:28:12;;;;;;;10.45;4.93;;;;;;;;;;5075101;28;20036;-48
2021/07/16 11:30:38;;;;;;;8.05;5.15;;;;;;;;;;5075626;28;20024;-51
2021/07/16 11:33:06;;;;;;;9.60;5.55;;;;;;;;;;5075402;28;20032;-49
2021/07/16 11:35:32;;;;;;;5.85;4.85;;;;;;;;;;5073214;28;20472;-50
2021/07/16 11:37:59;;;;;;;6.88;5.10;;;;;;;;;;5072367;28;20048;-52
2021/07/16 11:40:28;;;;;;;10.05;5.47;;;;;;;;;;5068804;28;20020;-51
2021/07/16 11:42:58;;;;;;;8.77;4.38;;;;;;;;;;5075452;28;20107;-54
2021/07/16 11:45:25;;;;;;;8.20;5.10;;;;;;;;;;5075424;28;20032;-49
2021/07/16 11:47:52;;;;;;;6.43;4.78;;;;;;;;;;5074991;28;20131;-52
2021/07/16 11:50:18;;;;;;;8.10;5.00;;;;;;;;;;5075636;28;20099;-49
2021/07/16 11:52:47;;;;;;;12.43;5.80;;;;;;;;;;5075249;28;20115;-47
2021/07/16 11:55:14;;;;;;;6.90;5.05;;;;;;;;;;5074909;28;20036;-47
2021/07/16 11:57:57;;;;;;;6.20;4.13;;;;;;;;;;5074543;28;20033;-47
2021/07/16 12:00:24;;;;;;;7.80;5.13;;;;;;;;;;5075066;28;20376;-47
2021/07/16 12:02:51;;;;;;;6.47;4.47;;;;;;;;;;5075186;28;20020;-48
2021/07/16 12:05:21;;;;;;;7.93;4.82;;;;;;;;;;5074924;28;20048;-48
2021/07/16 12:07:47;;;;;;;7.70;4.55;;;;;;;;;;5074693;28;20035;-47
2021/07/16 12:10:15;;;;;;;9.05;5.20;;;;;;;;;;5074858;28;20017;-47
2021/07/16 12:12:41;;;;;;;10.05;4.78;;;;;;;;;;5082137;28;20366;-47
2021/07/16 12:15:16;;;;;;;14.15;5.38;;;;;;;;;;5074025;28;20514;-47
2021/07/16 12:17:55;;;;;;;6.18;4.72;;;;;;;;;;5074404;28;20024;-47
2021/07/16 12:20:34;;;;;;;8.77;5.63;;;;;;;;;;5074760;28;20025;-48
2021/07/16 12:23:07;;;;;;;5.93;4.57;;;;;;;;;;5073445;28;20493;-49
2021/07/16 12:25:35;;;;;;;9.30;4.63;;;;;;;;;;5074762;28;20135;-47
2021/07/16 12:28:07;;;;;;;13.02;5.22;;;;;;;;;;5074125;28;20078;-49
2021/07/16 12:30:33;;;;;;;9.02;4.63;;;;;;;;;;5074212;28;20373;-52
2021/07/16 12:33:07;;;;;;;9.23;4.68;;;;;;;;;;5074680;28;20028;-49
2021/07/16 12:35:36;;;;;;;7.95;4.68;;;;;;;;;;5071834;28;20029;-51
2021/07/16 12:38:04;;;;;;;11.32;5.10;;;;;;;;;;5071961;28;20024;-49
2021/07/16 12:40:30;;;;;;;7.53;4.68;;;;;;;;;;5067662;28;20021;-52
2021/07/16 12:43:15;;;;;;;6.43;4.60;;;;;;;;;;5074117;28;20031;-47
2021/07/16 12:45:47;;;;;;;8.05;4.95;;;;;;;;;;5074067;28;20082;-50
2021/07/16 12:48:16;;;;;;;12.15;5.72;;;;;;;;;;5074243;28;20028;-47
2021/07/16 12:50:44;;;;;;;7.35;4.55;;;;;;;;;;5074306;28;20037;-47
2021/07/16 12:53:11;;;;;;;6.15;4.65;;;;;;;;;;5074196;28;20385;-47
2021/07/16 12:55:40;;;;;;;9.52;4.80;;;;;;;;;;5074034;28;20047;-47
2021/07/16 12:58:09;;;;;;;8.73;4.95;;;;;;;;;;5073915;28;20020;-47
2021/07/16 13:00:36;;;;;;;11.50;4.95;;;;;;;;;;5073753;28;20027;-47
2021/07/16 13:03:14;;;;;;;9.00;4.97;;;;;;;;;;5074175;28;20059;-47
2021/07/16 13:05:41;;;;;;;12.35;5.80;;;;;;;;;;5073756;28;20032;-47
2021/07/16 13:08:17;;;;;;;7.55;5.30;;;;;;;;;;5073122;28;20045;-47
2021/07/16 13:10:44;;;;;;;7.53;5.13;;;;;;;;;;5076198;28;20028;-47
2021/07/16 13:13:10;;;;;;;9.35;6.43;;;;;;;;;;5078050;28;20032;-48
2021/07/16 13:15:36;;;;;;;14.25;6.75;;;;;;;;;;5072251;28;20047;-47
2021/07/16 13:18:06;;;;;;;12.88;7.47;;;;;;;;;;5073326;28;20158;-49
2021/07/16 13:20:32;;;;;;;9.18;7.15;;;;;;;;;;5071485;28;20105;-47
2021/07/16 13:22:58;;;;;;;11.40;7.60;;;;;;;;;;5072399;28;20024;-53
2021/07/16 13:25:24;;;;;;;10.68;6.82;;;;;;;;;;5073348;28;20033;-52
2021/07/16 13:27:50;;;;;;;16.95;7.72;;;;;;;;;;5072619;28;20078;-52
2021/07/16 13:30:16;;;;;;;13.18;6.38;;;;;;;;;;5073196;28;20039;-50
2021/07/16 13:32:43;;;;;;;9.02;6.32;;;;;;;;;;5073464;28;20052;-53
2021/07/16 13:35:09;;;;;;;9.57;6.13;;;;;;;;;;5073277;28;20023;-52
2021/07/16 13:37:35;;;;;;;7.90;5.78;;;;;;;;;;5067564;28;20030;-50
2021/07/16 13:40:02;;;;;;;11.57;6.15;;;;;;;;;;5065056;28;20434;-48
2021/07/16 13:42:28;;;;;;;14.07;5.75;;;;;;;;;;5073145;28;20082;-48
2021/07/16 13:44:53;;;;;;;10.88;6.38;;;;;;;;;;5072982;28;20058;-48
2021/07/16 13:47:19;;;;;;;11.38;5.35;;;;;;;;;;5073102;28;20051;-48
2021/07/16 13:49:45;;;;;;;14.45;5.70;;;;;;;;;;5072504;28;20480;-49
2021/07/16 13:52:11;;;;;;;13.52;5.50;;;;;;;;;;5072860;28;20032;-47
2021/07/16 13:54:37;;;;;;;10.43;5.80;;;;;;;;;;5072885;28;20066;-48
2021/07/16 13:57:04;;;;;;;8.20;5.70;;;;;;;;;;5072541;28;20479;-49
2021/07/16 13:59:30;;;;;;;10.18;5.43;;;;;;;;;;5072133;28;20063;-53
2021/07/16 14:01:56;;;;;;;7.93;6.10;;;;;;;;;;5072657;28;20473;-52
2021/07/16 14:04:22;;;;;;;12.45;5.95;;;;;;;;;;5072456;28;20027;-54
2021/07/16 14:06:48;;;;;;;13.15;6.65;;;;;;;;;;5072836;28;20478;-51
2021/07/16 14:09:14;;;;;;;11.32;5.65;;;;;;;;;;5072106;28;20123;-48
2021/07/16 14:11:40;;;;;;;14.23;6.55;;;;;;;;;;5079650;28;20025;-48
2021/07/16 14:14:07;;;;;;;10.80;6.28;;;;;;;;;;5070701;28;20095;-52
2021/07/16 14:16:37;;;;;;;11.65;5.60;;;;;;;;;;5071994;28;20044;-51
2021/07/16 14:19:03;;;;;;;12.40;5.70;;;;;;;;;;5072187;28;20031;-47
2021/07/16 14:21:29;;;;;;;7.47;5.38;;;;;;;;;;5072009;28;20548;-48
2021/07/16 14:23:56;;;;;;;7.63;5.75;;;;;;;;;;5071885;28;20025;-49
2021/07/16 14:26:22;;;;;;;8.20;5.68;;;;;;;;;;5072419;28;20611;-48
2021/07/16 14:28:48;;;;;;;9.05;6.47;;;;;;;;;;5071873;28;20465;-49
2021/07/16 14:31:14;;;;;;;7.80;5.60;;;;;;;;;;5071050;28;20050;-47
2021/07/16 14:33:41;;;;;;;13.93;5.63;;;;;;;;;;5072273;28;20484;-48
2021/07/16 14:36:07;;;;;;;8.32;5.97;;;;;;;;;;5067565;28;20460;-54
2021/07/16 14:38:33;;;;;;;10.25;5.85;;;;;;;;;;5069339;28;20090;-53
2021/07/16 14:40:59;;;;;;;10.60;6.00;;;;;;;;;;5068205;28;20448;-51